Time;durP1;ratioP1;P1;durP2;ratioP2;P2;SDS_P1;SDS_P2;PMS_P1;PMS_P2;Temp;Humidity;BMP_temperature;BMP_pressure;BME280_temperature;BME280_humidity;BME280_pressure;Samples;Min_cycle;Max_cycle;Signal;HPM_P1;HPM_P2
2022/10/10 00:01:42;;;;;;;;;5.00;3.00;;;;;21.86;49.06;101941.13;105548;1295;29544;-55
2022/10/10 00:04:09;;;;;;;;;6.00;6.00;;;;;21.86;49.00;101938.22;105538;1280;29516;-56
2022/10/10 00:06:37;;;;;;;;;3.00;3.00;;;;;21.86;49.11;101932.42;105505;1273;32264;-54
2022/10/10 00:09:04;;;;;;;;;3.00;3.00;;;;;21.86;49.13;101932.21;105586;1280;32103;-55
2022/10/10 00:11:31;;;;;;;;;3.00;3.00;;;;;21.86;49.03;101927.33;105547;1302;31338;-58
2022/10/10 00:13:59;;;;;;;;;3.00;3.00;;;;;21.86;49.11;101930.58;105526;1298;31662;-55
2022/10/10 00:16:26;;;;;;;;;5.00;5.00;;;;;21.87;49.13;101929.05;105525;1302;31617;-55
2022/10/10 00:18:53;;;;;;;;;5.00;5.00;;;;;21.85;49.18;101925.94;105567;1297;31196;-57
2022/10/10 00:21:20;;;;;;;;;;;;;;;21.86;49.07;101925.33;105576;1297;32273;-55
2022/10/10 00:23:48;;;;;;;;;9.00;9.00;;;;;21.85;48.99;101919.73;105574;1304;33291;-57
2022/10/10 00:26:15;;;;;;;;;3.00;3.00;;;;;21.86;49.09;101920.61;105553;1275;31293;-56
2022/10/10 00:28:42;;;;;;;;;3.00;2.00;;;;;21.86;48.96;101912.94;105547;1272;31309;-55
2022/10/10 00:31:09;;;;;;;;;3.00;3.00;;;;;21.85;49.10;101909.70;105546;1272;31500;-56
2022/10/10 00:33:37;;;;;;;;;5.00;5.00;;;;;21.86;49.14;101913.31;105541;1288;30238;-56
2022/10/10 00:36:04;;;;;;;;;5.00;5.00;;;;;21.85;49.05;101914.81;105581;1304;31984;-54
2022/10/10 00:38:31;;;;;;;;;3.00;3.00;;;;;21.85;49.09;101913.71;105558;1280;32266;-54
2022/10/10 00:40:58;;;;;;;;;11.00;10.00;;;;;21.85;49.09;101910.31;105564;1280;32285;-56
2022/10/10 00:43:26;;;;;;;;;5.00;3.00;;;;;21.86;48.97;101909.29;105524;1298;32125;-56
2022/10/10 00:45:53;;;;;;;;;9.00;9.00;;;;;21.87;48.95;101910.15;105560;1295;31679;-56
2022/10/10 00:48:20;;;;;;;;;2.00;2.00;;;;;21.86;48.96;101903.86;105607;1304;31976;-57
2022/10/10 00:50:47;;;;;;;;;3.00;3.00;;;;;21.85;49.09;101899.56;105557;1279;31123;-56
2022/10/10 00:53:15;;;;;;;;;4.00;4.00;;;;;21.85;49.01;101899.73;105550;1280;29597;-56
2022/10/10 00:55:42;;;;;;;;;5.00;5.00;;;;;21.84;49.03;101896.52;105549;1294;31371;-53
2022/10/10 00:58:09;;;;;;;;;5.00;5.00;;;;;21.85;49.06;101893.94;105515;1280;31671;-55
2022/10/10 01:00:36;;;;;;;;;3.00;3.00;;;;;21.85;49.05;101893.70;105564;1304;30492;-56
2022/10/10 01:03:04;;;;;;;;;3.00;3.00;;;;;21.84;49.14;101890.35;105568;1280;31239;-55
2022/10/10 01:05:31;;;;;;;;;5.00;5.00;;;;;21.85;49.04;101892.88;105543;1302;33092;-56
2022/10/10 01:07:58;;;;;;;;;7.00;7.00;;;;;21.84;49.15;101890.89;105529;1280;32161;-55
2022/10/10 01:10:25;;;;;;;;;7.00;5.00;;;;;21.84;49.06;101886.14;105529;1286;31830;-55
2022/10/10 01:12:53;;;;;;;;;3.00;3.00;;;;;21.86;48.95;101888.41;105547;1296;30830;-57
2022/10/10 01:15:20;;;;;;;;;6.00;5.50;;;;;21.85;49.05;101882.98;105602;1298;31887;-54
2022/10/10 01:17:48;;;;;;;;;6.00;5.00;;;;;21.86;48.82;101885.13;105570;1297;32336;-56
2022/10/10 01:20:15;;;;;;;;;5.00;3.00;;;;;21.85;48.87;101883.52;105563;1288;32278;-56
2022/10/10 01:22:42;;;;;;;;;5.00;3.00;;;;;21.85;49.01;101887.96;105572;1304;32538;-55
2022/10/10 01:25:09;;;;;;;;;3.00;3.00;;;;;21.85;49.07;101887.34;105549;1297;30629;-58
2022/10/10 01:27:37;;;;;;;;;5.00;3.00;;;;;21.84;49.17;101885.44;105571;1288;31312;-57
2022/10/10 01:30:04;;;;;;;;;4.00;4.00;;;;;21.84;48.96;101886.77;105564;1295;31950;-57
2022/10/10 01:32:31;;;;;;;;;3.00;3.00;;;;;21.85;49.09;101891.23;105525;1280;31430;-57
2022/10/10 01:34:58;;;;;;;;;5.50;5.00;;;;;21.85;48.97;101888.67;105531;1280;31989;-56
2022/10/10 01:37:26;;;;;;;;;5.00;5.00;;;;;21.85;49.06;101887.55;105532;1280;31127;-57
2022/10/10 01:39:53;;;;;;;;;5.00;5.00;;;;;21.85;49.10;101892.30;105554;1280;31222;-56
2022/10/10 01:42:20;;;;;;;;;5.00;5.00;;;;;21.84;48.97;101888.02;105565;1303;31482;-56
2022/10/10 01:44:51;;;;;;;;;3.00;3.00;;;;;21.84;48.99;101887.30;105585;1302;31467;-53
2022/10/10 01:47:18;;;;;;;;;7.00;7.00;;;;;21.84;48.83;101887.89;105550;1296;31835;-54
2022/10/10 01:49:45;;;;;;;;;3.00;3.00;;;;;21.85;48.84;101883.94;105568;1282;29543;-56
2022/10/10 01:52:13;;;;;;;;;11.00;10.00;;;;;21.85;49.01;101883.19;105510;1297;30528;-56
2022/10/10 01:54:40;;;;;;;;;6.00;5.00;;;;;21.85;48.95;101876.56;105554;1296;30031;-55
2022/10/10 01:57:07;;;;;;;;;6.00;6.00;;;;;21.85;48.73;101871.92;105581;1304;30480;-57
2022/10/10 01:59:35;;;;;;;;;5.00;5.00;;;;;21.84;48.98;101872.88;105542;1288;31235;-56
2022/10/10 02:02:02;;;;;;;;;6.00;5.00;;;;;21.84;48.87;101874.89;105544;1288;31764;-56
2022/10/10 02:04:29;;;;;;;;;5.00;5.00;;;;;21.85;48.78;101874.65;105537;1295;31533;-55
2022/10/10 02:06:56;;;;;;;;;5.00;5.00;;;;;21.84;48.89;101873.11;105550;1304;31668;-54
2022/10/10 02:09:24;;;;;;;;;6.00;6.00;;;;;21.85;48.79;101872.67;105518;1289;30157;-56
2022/10/10 02:11:51;;;;;;;;;7.00;6.50;;;;;21.85;48.85;101872.48;105517;1295;29479;-57
2022/10/10 02:14:18;;;;;;;;;9.00;9.00;;;;;21.85;49.00;101869.57;105494;1278;33045;-53
2022/10/10 02:16:45;;;;;;;;;6.00;5.00;;;;;21.85;48.96;101865.75;105499;1272;31924;-56
2022/10/10 02:19:13;;;;;;;;;5.00;5.00;;;;;21.85;48.98;101864.65;105485;1288;31350;-57
2022/10/10 02:21:40;;;;;;;;;10.00;10.00;;;;;21.85;48.91;101862.48;105514;1297;31279;-56
2022/10/10 02:24:07;;;;;;;;;5.50;5.50;;;;;21.84;48.82;101861.42;105539;1303;30193;-53
2022/10/10 02:26:35;;;;;;;;;5.00;5.00;;;;;21.84;48.98;101855.48;105480;1296;31846;-56
2022/10/10 02:29:02;;;;;;;;;6.00;6.00;;;;;21.84;48.65;101850.02;105495;1289;31228;-56
2022/10/10 02:31:29;;;;;;;;;7.00;6.00;;;;;21.84;48.72;101847.80;105570;1294;29723;-53
2022/10/10 02:33:56;;;;;;;;;5.00;3.00;;;;;21.84;48.73;101842.04;105542;1303;31979;-56
2022/10/10 02:36:24;;;;;;;;;6.00;6.00;;;;;21.84;48.75;101841.32;105549;1303;29574;-54
2022/10/10 02:38:51;;;;;;;;;6.00;6.00;;;;;21.84;48.66;101842.52;105567;1297;33002;-55
2022/10/10 02:41:18;;;;;;;;;;;;;;;21.84;48.75;101840.02;105529;1272;31733;-54
2022/10/10 02:43:45;;;;;;;;;6.00;6.00;;;;;21.83;48.73;101838.42;105539;1303;31281;-56
2022/10/10 02:46:13;;;;;;;;;12.00;10.50;;;;;21.84;48.67;101839.85;105543;1303;29972;-56
2022/10/10 02:48:40;;;;;;;;;5.00;5.00;;;;;21.84;48.77;101839.44;105549;1280;30792;-56
2022/10/10 02:51:07;;;;;;;;;5.00;5.00;;;;;21.84;48.78;101836.30;105571;1303;30151;-54
2022/10/10 02:53:34;;;;;;;;;5.00;5.00;;;;;21.83;48.80;101830.64;105528;1302;31246;-57
2022/10/10 02:56:02;;;;;;;;;6.00;6.00;;;;;21.83;48.81;101833.88;105547;1280;31255;-58
2022/10/10 02:58:29;;;;;;;;;6.00;5.00;;;;;21.83;48.69;101835.00;105510;1303;31218;-56
2022/10/10 03:00:56;;;;;;;;;6.00;6.00;;;;;21.83;48.75;101839.20;105528;1279;30942;-53
2022/10/10 03:03:24;;;;;;;;;;;;;;;21.82;48.67;101836.52;105555;1304;31169;-54
2022/10/10 03:05:51;;;;;;;;;7.00;6.00;;;;;21.82;48.57;101829.98;105571;1304;31905;-56
2022/10/10 03:08:19;;;;;;;;;6.00;6.00;;;;;21.83;48.55;101829.14;105529;1302;29488;-57
2022/10/10 03:10:47;;;;;;;;;6.00;6.00;;;;;21.84;48.56;101827.84;105580;1303;29771;-54
2022/10/10 03:13:14;;;;;;;;;7.00;6.00;;;;;21.84;48.48;101824.33;105503;1272;31226;-57
2022/10/10 03:15:41;;;;;;;;;7.00;7.00;;;;;21.84;48.70;101820.16;105529;1295;32094;-57
2022/10/10 03:18:08;;;;;;;;;7.00;7.00;;;;;21.83;48.76;101818.45;105589;1297;31981;-56
2022/10/10 03:20:36;;;;;;;;;8.00;7.00;;;;;21.83;48.52;101819.86;105533;1272;31670;-56
2022/10/10 03:23:03;;;;;;;;;6.00;6.00;;;;;21.83;48.66;101816.20;105517;1304;29781;-57
2022/10/10 03:25:30;;;;;;;;;6.00;6.00;;;;;21.84;48.37;101818.77;105532;1280;31350;-56
2022/10/10 03:27:57;;;;;;;;;6.00;6.00;;;;;21.84;48.64;101820.54;105515;1289;31953;-53
2022/10/10 03:30:25;;;;;;;;;6.00;6.00;;;;;21.83;48.49;101816.61;105529;1301;31284;-54
2022/10/10 03:32:52;;;;;;;;;5.00;5.00;;;;;21.83;48.65;101819.20;105568;1280;30443;-56
2022/10/10 03:35:19;;;;;;;;;6.00;6.00;;;;;21.82;48.47;101819.06;105550;1276;30525;-54
2022/10/10 03:37:47;;;;;;;;;6.00;6.00;;;;;21.83;48.49;101815.58;105498;1294;31308;-56
2022/10/10 03:40:14;;;;;;;;;6.00;6.00;;;;;21.83;48.53;101812.99;105566;1295;31289;-57
2022/10/10 03:42:41;;;;;;;;;11.00;10.00;;;;;21.82;48.59;101808.89;105501;1297;31291;-56
2022/10/10 03:45:08;;;;;;;;;5.50;5.00;;;;;21.82;48.51;101811.10;105573;1303;31305;-57
2022/10/10 03:47:36;;;;;;;;;7.00;7.00;;;;;21.81;48.46;101801.50;105563;1303;31180;-57
2022/10/10 03:50:03;;;;;;;;;7.00;7.00;;;;;21.82;48.46;101806.16;105558;1288;30450;-56
2022/10/10 03:52:30;;;;;;;;;7.00;6.00;;;;;21.82;48.56;101808.36;105542;1272;30797;-56
2022/10/10 03:54:57;;;;;;;;;8.00;7.00;;;;;21.82;48.35;101813.23;105522;1297;33204;-53
2022/10/10 03:57:25;;;;;;;;;6.00;6.00;;;;;21.83;48.43;101816.45;105568;1303;31784;-56
2022/10/10 03:59:52;;;;;;;;;6.50;6.50;;;;;21.83;48.60;101814.29;105385;1303;225386;-56
2022/10/10 04:02:19;;;;;;;;;7.00;6.00;;;;;21.83;48.39;101812.10;105544;1288;29655;-56
2022/10/10 04:04:46;;;;;;;;;7.00;7.00;;;;;21.83;48.52;101809.87;105526;1276;31992;-54
2022/10/10 04:07:14;;;;;;;;;6.00;5.00;;;;;21.82;48.61;101810.72;105530;1302;29491;-53
2022/10/10 04:09:41;;;;;;;;;6.00;5.67;;;;;21.83;48.56;101816.41;105501;1273;31974;-54
2022/10/10 04:12:08;;;;;;;;;;;;;;;21.83;48.25;101814.39;105527;1303;32974;-54
2022/10/10 04:14:36;;;;;;;;;9.00;9.00;;;;;21.84;48.29;101816.38;105539;1279;30669;-57
2022/10/10 04:17:03;;;;;;;;;4.00;4.00;;;;;21.83;48.54;101813.01;105500;1273;31432;-55
2022/10/10 04:19:30;;;;;;;;;6.50;6.00;;;;;21.83;48.44;101813.33;105524;1279;30699;-54
2022/10/10 04:21:57;;;;;;;;;7.00;7.00;;;;;21.83;48.45;101815.92;105525;1303;30646;-54
2022/10/10 04:24:25;;;;;;;;;5.50;5.50;;;;;21.83;48.34;101810.61;105552;1303;33024;-54
2022/10/10 04:26:52;;;;;;;;;6.50;6.50;;;;;21.84;48.55;101811.29;105562;1303;31179;-57
2022/10/10 04:29:19;;;;;;;;;6.00;6.00;;;;;21.83;48.44;101809.89;105534;1272;31834;-56
2022/10/10 04:31:46;;;;;;;;;6.50;6.00;;;;;21.83;48.42;101808.77;105502;1280;30462;-56
2022/10/10 04:34:14;;;;;;;;;8.00;8.00;;;;;21.82;48.48;101805.81;105494;1272;31854;-56
2022/10/10 04:36:41;;;;;;;;;6.00;6.00;;;;;21.82;48.34;101805.09;105537;1298;30862;-54
2022/10/10 04:39:09;;;;;;;;;6.00;5.50;;;;;21.83;48.17;101805.70;105545;1303;32436;-53
2022/10/10 04:41:36;;;;;;;;;6.00;5.00;;;;;21.84;48.43;101802.90;105513;1279;31433;-58
2022/10/10 04:44:03;;;;;;;;;10.00;6.00;;;;;21.82;48.45;101796.30;105536;1280;29380;-55
2022/10/10 04:46:30;;;;;;;;;10.00;10.00;;;;;21.83;48.34;101790.83;105512;1280;31227;-56
2022/10/10 04:48:58;;;;;;;;;5.00;5.00;;;;;21.83;48.31;101787.65;105503;1296;32890;-56
2022/10/10 04:51:25;;;;;;;;;6.00;6.00;;;;;21.83;48.19;101783.80;105515;1298;31386;-56
2022/10/10 04:53:52;;;;;;;;;6.00;6.00;;;;;21.84;48.33;101782.16;105537;1303;31264;-55
2022/10/10 04:56:19;;;;;;;;;6.50;6.50;;;;;21.83;48.20;101776.64;105418;1272;31902;-53
2022/10/10 04:58:47;;;;;;;;;11.00;7.00;;;;;21.83;48.20;101777.00;105476;1280;32003;-55
2022/10/10 05:01:14;;;;;;;;;6.00;6.00;;;;;21.83;48.13;101771.89;105530;1294;30125;-52
2022/10/10 05:03:41;;;;;;;;;7.00;6.00;;;;;21.84;48.01;101772.48;105492;1279;29520;-54
2022/10/10 05:06:09;;;;;;;;;7.00;7.00;;;;;21.85;48.35;101768.38;105586;1303;31372;-55
2022/10/10 05:08:36;;;;;;;;;7.00;6.00;;;;;21.85;48.45;101763.64;105497;1288;31533;-54
2022/10/10 05:11:03;;;;;;;;;5.00;5.00;;;;;21.85;48.63;101759.50;105553;1296;30030;-54
2022/10/10 05:13:30;;;;;;;;;6.00;6.00;;;;;21.84;48.82;101762.52;105500;1302;32299;-54
2022/10/10 05:15:59;;;;;;;;;6.00;5.00;;;;;21.83;48.78;101768.43;105498;1273;29560;-56
2022/10/10 05:18:26;;;;;;;;;9.00;9.00;;;;;21.82;48.78;101772.54;105562;1303;29732;-53
2022/10/10 05:20:53;;;;;;;;;10.00;9.00;;;;;21.82;48.51;101768.12;105550;1303;31288;-55
2022/10/10 05:23:20;;;;;;;;;7.00;7.00;;;;;21.84;48.35;101766.30;105506;1286;33591;-57
2022/10/10 05:25:48;;;;;;;;;6.50;6.50;;;;;21.84;48.53;101760.42;105530;1304;32892;-56
2022/10/10 05:28:15;;;;;;;;;6.50;6.50;;;;;21.86;48.52;101761.02;105545;1272;30850;-56
2022/10/10 05:30:42;;;;;;;;;9.00;7.00;;;;;21.87;48.54;101763.77;105509;1279;31955;-56
2022/10/10 05:33:09;;;;;;;;;5.00;5.00;;;;;21.87;48.57;101762.52;105566;1304;32220;-56
2022/10/10 05:35:37;;;;;;;;;14.00;14.00;;;;;21.86;48.66;101762.07;105544;1303;30137;-53
2022/10/10 05:38:05;;;;;;;;;10.00;10.00;;;;;21.87;48.72;101758.36;105525;1295;32802;-57
2022/10/10 05:40:32;;;;;;;;;6.00;6.00;;;;;21.87;48.81;101759.39;105548;1279;29584;-53
2022/10/10 05:42:59;;;;;;;;;10.50;10.00;;;;;21.89;48.52;101754.50;105522;1280;31955;-56
2022/10/10 05:45:26;;;;;;;;;53.00;46.00;;;;;21.91;49.01;101755.22;105553;1289;30053;-55
2022/10/10 05:47:54;;;;;;;;;72.00;57.00;;;;;21.92;49.07;101756.77;105559;1303;31783;-53
2022/10/10 05:50:21;;;;;;;;;64.00;54.00;;;;;21.94;49.08;101749.85;105479;1280;32957;-56
2022/10/10 05:52:48;;;;;;;;;63.00;49.00;;;;;21.95;48.98;101752.39;105493;1303;32427;-53
2022/10/10 05:55:16;;;;;;;;;59.50;47.00;;;;;21.97;48.98;101752.56;105471;1279;30084;-53
2022/10/10 05:57:43;;;;;;;;;46.50;41.00;;;;;21.98;48.73;101750.68;105477;1292;31832;-54
2022/10/10 06:00:10;;;;;;;;;43.00;36.00;;;;;21.98;48.96;101751.41;105573;1303;31459;-55
2022/10/10 06:02:37;;;;;;;;;36.00;32.50;;;;;21.98;48.84;101751.36;105482;1286;33014;-54
2022/10/10 06:05:05;;;;;;;;;35.00;31.00;;;;;22.01;48.51;101749.41;105520;1303;31190;-54
2022/10/10 06:07:32;;;;;;;;;30.00;27.00;;;;;22.03;48.54;101747.41;105533;1302;31818;-56
2022/10/10 06:10:00;;;;;;;;;23.00;23.00;;;;;22.08;48.40;101749.95;105470;1278;30625;-53
2022/10/10 06:12:27;;;;;;;;;23.00;22.00;;;;;22.12;48.25;101744.09;105512;1303;30275;-52
2022/10/10 06:14:54;;;;;;;;;22.00;20.00;;;;;22.13;48.27;101747.96;105481;1286;32087;-52
2022/10/10 06:17:22;;;;;;;;;20.50;16.50;;;;;22.16;48.53;101743.01;105506;1279;30989;-55
2022/10/10 06:19:49;;;;;;;;;18.00;18.00;;;;;22.17;48.61;101744.48;105513;1296;31351;-52
2022/10/10 06:22:16;;;;;;;;;18.50;16.50;;;;;22.19;48.58;101739.22;105572;1280;31271;-52
2022/10/10 06:24:44;;;;;;;;;14.00;14.00;;;;;22.21;48.47;101745.95;105518;1280;29708;-56
2022/10/10 06:27:11;;;;;;;;;12.00;11.00;;;;;22.22;48.55;101747.27;105563;1304;31319;-56
2022/10/10 06:29:38;;;;;;;;;15.00;14.00;;;;;22.24;48.39;101748.36;105504;1303;31864;-54
2022/10/10 06:32:05;;;;;;;;;11.00;11.00;;;;;22.25;48.52;101747.67;105513;1286;31865;-55
2022/10/10 06:34:33;;;;;;;;;10.00;9.50;;;;;22.27;48.27;101745.46;105449;1280;32407;-54
2022/10/10 06:37:00;;;;;;;;;12.00;11.00;;;;;22.29;48.22;101742.50;105553;1294;32262;-56
2022/10/10 06:39:28;;;;;;;;;12.00;11.00;;;;;22.30;48.14;101744.39;105539;1303;32167;-53
2022/10/10 06:41:55;;;;;;;;;10.00;9.00;;;;;22.33;48.03;101746.02;105509;1292;29129;-52
2022/10/10 06:44:22;;;;;;;;;12.00;10.00;;;;;22.34;48.00;101745.37;105520;1280;32139;-55
2022/10/10 06:46:49;;;;;;;;;12.00;11.50;;;;;22.37;47.94;101744.48;105512;1272;32415;-56
2022/10/10 06:49:17;;;;;;;;;10.00;9.00;;;;;22.38;48.05;101740.54;105500;1295;30283;-54
2022/10/10 06:51:44;;;;;;;;;9.00;9.00;;;;;22.41;48.09;101740.30;105531;1287;31846;-56
2022/10/10 06:54:11;;;;;;;;;;;;;;;22.43;48.07;101734.66;105480;1303;31646;-53
2022/10/10 06:56:39;;;;;;;;;9.00;7.00;;;;;22.46;48.04;101734.73;105439;1280;29545;-54
2022/10/10 06:59:06;;;;;;;;;5.50;5.50;;;;;22.48;47.87;101738.13;105512;1280;31856;-54
2022/10/10 07:01:33;;;;;;;;;7.00;7.00;;;;;22.50;48.13;101737.31;105496;1292;30052;-55
2022/10/10 07:04:00;;;;;;;;;10.00;9.00;;;;;22.52;48.08;101734.96;105473;1280;31228;-56
2022/10/10 07:06:28;;;;;;;;;7.00;7.00;;;;;22.54;47.97;101728.93;105433;1297;32381;-53
2022/10/10 07:08:56;;;;;;;;;;;;;;;22.55;47.91;101727.61;105449;1279;31054;-56
2022/10/10 07:11:24;;;;;;;;;;;;;;;22.57;47.92;101720.67;105441;1280;31117;-52
2022/10/10 07:13:52;;;;;;;;;7.00;6.00;;;;;22.60;47.95;101713.66;105488;1273;31110;-52
2022/10/10 07:16:19;;;;;;;;;6.00;6.00;;;;;22.62;47.96;101711.60;105424;1303;31331;-51
2022/10/10 07:18:47;;;;;;;;;7.00;6.50;;;;;22.64;47.83;101714.11;105492;1303;31191;-54
2022/10/10 07:21:14;;;;;;;;;8.00;7.00;;;;;22.68;47.70;101709.20;105519;1297;29475;-55
2022/10/10 07:23:41;;;;;;;;;6.00;6.00;;;;;22.69;47.86;101708.65;105498;1272;33213;-55
2022/10/10 07:26:09;;;;;;;;;6.00;6.00;;;;;22.71;47.69;101709.21;105467;1296;30674;-55
2022/10/10 07:28:36;;;;;;;;;6.00;6.00;;;;;22.72;47.79;101708.33;105488;1304;30292;-55
2022/10/10 07:31:04;;;;;;;;;6.00;5.00;;;;;22.74;47.75;101707.20;105518;1279;31806;-56
2022/10/10 07:33:32;;;;;;;;;9.00;7.00;;;;;22.76;47.70;101703.16;105428;1272;31239;-56
2022/10/10 07:35:59;;;;;;;;;5.00;5.00;;;;;22.76;47.63;101698.55;105459;1303;29549;-53
2022/10/10 07:38:26;;;;;;;;;6.00;6.00;;;;;22.77;47.81;101696.34;105499;1273;31271;-53
2022/10/10 07:40:53;;;;;;;;;6.00;6.00;;;;;22.78;47.67;101692.73;105526;1272;31525;-55
2022/10/10 07:43:21;;;;;;;;;5.00;5.00;;;;;22.79;47.78;101692.21;105499;1294;30884;-53
2022/10/10 07:45:48;;;;;;;;;5.00;5.00;;;;;22.80;47.79;101687.40;105510;1296;31236;-54
2022/10/10 07:48:15;;;;;;;;;5.00;5.00;;;;;22.82;47.79;101691.60;105395;1272;32129;-51
2022/10/10 07:50:42;;;;;;;;;25.00;21.00;;;;;22.82;48.07;101690.98;105377;1280;34038;-50
2022/10/10 07:53:10;;;;;;;;;78.00;56.00;;;;;22.82;48.23;101690.30;105441;1272;32802;-52
2022/10/10 07:55:37;;;;;;;;;82.00;61.00;;;;;22.80;48.15;101686.68;105437;1279;41778;-52
2022/10/10 07:58:04;;;;;;;;;73.00;54.00;;;;;22.81;48.31;101687.70;105456;1272;31848;-52
2022/10/10 08:00:32;;;;;;;;;53.50;42.00;;;;;22.82;48.35;101683.23;105493;1272;32425;-49
2022/10/10 08:02:59;;;;;;;;;47.00;34.00;;;;;22.84;48.34;101681.36;105478;1280;30882;-51
2022/10/10 08:05:26;;;;;;;;;48.00;37.50;;;;;22.86;48.34;101678.56;105393;1280;32090;-51
2022/10/10 08:07:53;;;;;;;;;40.00;29.50;;;;;22.88;48.11;101676.77;105353;1276;31352;-51
2022/10/10 08:10:21;;;;;;;;;;;;;;;22.89;48.19;101669.86;105503;1302;31267;-50
2022/10/10 08:12:48;;;;;;;;;26.50;24.00;;;;;22.91;48.19;101665.32;105504;1280;31961;-51
2022/10/10 08:15:15;;;;;;;;;;;;;;;22.92;47.96;101664.80;105447;1304;29757;-54
2022/10/10 08:17:42;;;;;;;;;29.00;26.00;;;;;22.94;47.86;101658.52;105537;1303;31499;-50
2022/10/10 08:20:10;;;;;;;;;26.00;20.00;;;;;22.97;47.84;101652.10;105503;1280;31269;-50
2022/10/10 08:22:37;;;;;;;;;20.00;15.50;;;;;22.98;47.91;101649.29;105431;1289;31460;-53
2022/10/10 08:25:04;;;;;;;;;20.50;18.00;;;;;22.99;47.97;101647.98;105436;1286;31993;-51
2022/10/10 08:27:32;;;;;;;;;21.00;19.00;;;;;23.03;47.75;101639.85;105499;1286;31658;-52
2022/10/10 08:29:59;;;;;;;;;19.50;17.00;;;;;23.09;47.70;101636.98;105472;1288;32869;-53
2022/10/10 08:32:26;;;;;;;;;18.00;17.00;;;;;23.14;47.52;101627.14;105450;1280;32234;-52
2022/10/10 08:34:53;;;;;;;;;16.00;15.00;;;;;23.16;47.58;101628.74;105441;1304;31973;-53
2022/10/10 08:37:21;;;;;;;;;16.00;13.00;;;;;23.15;47.49;101630.29;105460;1272;30906;-53
2022/10/10 08:39:48;;;;;;;;;;;;;;;23.15;47.58;101626.91;105466;1303;31826;-54
2022/10/10 08:42:15;;;;;;;;;14.00;14.00;;;;;23.15;47.51;101624.34;105546;1279;31212;-54
2022/10/10 08:44:43;;;;;;;;;14.00;11.50;;;;;23.14;47.17;101618.09;105501;1304;31425;-52
2022/10/10 08:47:10;;;;;;;;;15.00;11.00;;;;;23.13;47.32;101609.23;105511;1272;29707;-52
2022/10/10 08:49:37;;;;;;;;;15.00;12.50;;;;;23.15;47.16;101601.36;105438;1304;31602;-52
2022/10/10 08:52:04;;;;;;;;;12.00;11.00;;;;;23.16;47.29;101595.79;105531;1301;30130;-54
2022/10/10 08:54:32;;;;;;;;;7.00;7.00;;;;;23.18;47.25;101602.11;105585;1304;31828;-53
2022/10/10 08:57:00;;;;;;;;;11.50;8.00;;;;;23.20;47.13;101598.84;105510;1302;30981;-52
2022/10/10 08:59:27;;;;;;;;;9.50;9.50;;;;;23.22;47.22;101596.27;105492;1289;31863;-53
2022/10/10 09:01:54;;;;;;;;;10.50;9.00;;;;;23.21;47.20;101590.11;105505;1279;31116;-53
2022/10/10 09:04:21;;;;;;;;;10.00;8.00;;;;;23.19;47.26;101590.91;105466;1295;32443;-51
2022/10/10 09:06:49;;;;;;;;;7.50;7.00;;;;;23.19;47.25;101589.61;105485;1296;29790;-54
2022/10/10 09:09:16;;;;;;;;;7.00;7.00;;;;;23.17;47.42;101589.05;105584;1280;31370;-54
2022/10/10 09:11:43;;;;;;;;;7.00;7.00;;;;;23.15;47.28;101598.81;105507;1289;32197;-52
2022/10/10 09:14:11;;;;;;;;;9.50;9.00;;;;;23.01;46.52;101595.84;105535;1301;31688;-51
2022/10/10 09:16:38;;;;;;;;;10.50;9.00;;;;;22.84;45.98;101599.56;105507;1272;31848;-51
2022/10/10 09:19:05;;;;;;;;;12.00;12.00;;;;;22.67;45.00;101589.53;105555;1282;32079;-52
2022/10/10 09:21:33;;;;;;;;;11.00;11.00;;;;;22.14;43.71;101592.30;105550;1301;31152;-53
2022/10/10 09:24:00;;;;;;;;;14.00;14.00;;;;;21.86;42.93;101578.90;105534;1276;32444;-51
2022/10/10 09:26:27;;;;;;;;;14.00;13.00;;;;;20.98;41.71;101582.41;105426;1276;32611;-49
2022/10/10 09:28:55;;;;;;;;;14.00;14.00;;;;;20.94;42.48;101579.20;105381;1289;33248;-51
2022/10/10 09:31:22;;;;;;;;;13.00;13.00;;;;;21.28;42.15;101586.65;105517;1275;31871;-50
2022/10/10 09:33:49;;;;;;;;;12.50;12.50;;;;;-128.00;-1.00;-1.00;102146;1303;1012349;-54
2022/10/10 09:36:16;;;;;;;;;13.00;12.00;;;;;-128.00;-1.00;-1.00;102197;1304;1004698;-50
2022/10/10 09:38:44;;;;;;;;;12.00;12.00;;;;;-128.00;-1.00;-1.00;102091;1303;1002705;-52
2022/10/10 09:41:11;;;;;;;;;12.33;12.00;;;;;-128.00;-1.00;-1.00;102120;1296;1002840;-54
2022/10/10 09:43:38;;;;;;;;;15.00;13.67;;;;;-128.00;-1.00;-1.00;102100;1285;1003029;-53
2022/10/10 09:46:05;;;;;;;;;15.00;14.00;;;;;-128.00;-1.00;-1.00;102090;1303;1002310;-50
2022/10/10 09:48:33;;;;;;;;;10.00;10.00;;;;;-128.00;-1.00;-1.00;102110;1280;1003413;-53
2022/10/10 09:51:00;;;;;;;;;15.00;14.00;;;;;-128.00;-1.00;-1.00;101982;1282;1002685;-50
2022/10/10 09:53:27;;;;;;;;;14.00;13.00;;;;;-128.00;-1.00;-1.00;102097;1297;1002754;-53
2022/10/10 09:55:54;;;;;;;;;10.50;10.50;;;;;-128.00;-1.00;-1.00;102036;1296;1003435;-51
2022/10/10 09:58:22;;;;;;;;;15.00;13.00;;;;;-128.00;-1.00;-1.00;101890;1281;1005383;-49
2022/10/10 10:00:49;;;;;;;;;12.00;10.00;;;;;-128.00;-1.00;-1.00;101913;1289;1004807;-49
2022/10/10 10:03:16;;;;;;;;;13.00;10.00;;;;;-128.00;-1.00;-1.00;101914;1300;1002493;-53
2022/10/10 10:05:44;;;;;;;;;11.00;9.50;;;;;-128.00;-1.00;-1.00;101958;1304;1002611;-50
2022/10/10 10:08:11;;;;;;;;;13.00;12.00;;;;;-128.00;-1.00;-1.00;102067;1297;1002655;-49
2022/10/10 10:10:39;;;;;;;;;12.00;12.00;;;;;-128.00;-1.00;-1.00;102086;1283;1002909;-52
2022/10/10 10:13:06;;;;;;;;;14.50;14.50;;;;;-128.00;-1.00;-1.00;101981;1298;1002970;-50
2022/10/10 10:15:33;;;;;;;;;13.00;12.00;;;;;-128.00;-1.00;-1.00;101993;1304;1003288;-49
2022/10/10 10:18:00;;;;;;;;;10.00;10.00;;;;;-128.00;-1.00;-1.00;102105;1276;1002437;-50
2022/10/10 10:20:28;;;;;;;;;12.00;10.00;;;;;-128.00;-1.00;-1.00;101998;1275;1002573;-50
2022/10/10 10:22:55;;;;;;;;;10.00;9.00;;;;;-128.00;-1.00;-1.00;102136;1275;1002518;-52
2022/10/10 10:25:22;;;;;;;;;;;;;;;-128.00;-1.00;-1.00;102109;1286;1002938;-50
2022/10/10 10:27:49;;;;;;;;;9.00;9.00;;;;;-128.00;-1.00;-1.00;102129;1296;1002970;-50
2022/10/10 10:30:17;;;;;;;;;12.00;10.50;;;;;-128.00;-1.00;-1.00;102149;1283;1003111;-53
2022/10/10 10:32:44;;;;;;;;;12.00;11.00;;;;;-128.00;-1.00;-1.00;102153;1283;1005127;-51
2022/10/10 10:35:11;;;;;;;;;10.00;10.00;;;;;-128.00;-1.00;-1.00;102165;1283;1002593;-52
2022/10/10 10:37:39;;;;;;;;;12.00;10.00;;;;;-128.00;-1.00;-1.00;102121;1298;1002770;-52
2022/10/10 10:40:06;;;;;;;;;10.50;10.50;;;;;-128.00;-1.00;-1.00;101951;1297;1002597;-51
2022/10/10 10:42:33;;;;;;;;;9.00;9.00;;;;;-128.00;-1.00;-1.00;102133;1282;1002772;-54
2022/10/10 10:45:01;;;;;;;;;13.50;12.00;;;;;-128.00;-1.00;-1.00;102110;1282;1002656;-50
2022/10/10 10:47:28;;;;;;;;;;;;;;;-128.00;-1.00;-1.00;102124;1280;1002718;-50
2022/10/10 10:49:55;;;;;;;;;14.00;14.00;;;;;-128.00;-1.00;-1.00;102154;1283;1002915;-51
2022/10/10 10:52:23;;;;;;;;;11.00;11.00;;;;;-128.00;-1.00;-1.00;102117;1283;1003111;-50
2022/10/10 10:54:50;;;;;;;;;13.00;11.00;;;;;-128.00;-1.00;-1.00;102112;1296;1003101;-49
2022/10/10 10:57:17;;;;;;;;;13.00;10.00;;;;;-128.00;-1.00;-1.00;102162;1275;1002567;-50
2022/10/10 10:59:44;;;;;;;;;;;;;;;-128.00;-1.00;-1.00;101995;1304;1002857;-48
2022/10/10 11:02:12;;;;;;;;;9.00;9.00;;;;;-128.00;-1.00;-1.00;102117;1275;1002744;-48
2022/10/10 11:04:39;;;;;;;;;11.00;10.00;;;;;-128.00;-1.00;-1.00;102140;1275;1002622;-52
2022/10/10 11:07:08;;;;;;;;;;;;;;;-128.00;-1.00;-1.00;101953;1272;1002897;-51
2022/10/10 11:09:35;;;;;;;;;10.00;9.00;;;;;-128.00;-1.00;-1.00;102075;1301;1013588;-52
2022/10/10 11:12:03;;;;;;;;;7.50;7.50;;;;;-128.00;-1.00;-1.00;102028;1303;1002864;-50
2022/10/10 11:14:30;;;;;;;;;8.00;8.00;;;;;-128.00;-1.00;-1.00;101984;1297;1004085;-50